Portada
METAR-TAF:

METAR-TAF

Aeroports :

Puerto Francisco de Orellana, Equador

latitud: 00-27-46S, longitud: 076-59-12W, altitud: 254 m

Observació

L'informe es va fer fa 1 hora i 8 minuts, a les 17:00 UTC
Vent 4 kt del Nord-Est
Temperatura 23°C
Humitat 100%
Pressió 1019 hPa
Visibilitat 10 km o més
Escasses núvols a una alçada de 500 ft
Núvols disperses a una alçada de 1300 ft
Cel cobert a una alçada de 9000 ft
xàfecs en les proximitats

METAR: SECO 241700Z 04004KT 9999 VCSH FEW005 SCT013 OVC090 23/23 Q1019 RERA RMK A3010

Hora: 13:08 (18:08 UTC)


TAF: manca

Observacions i pronòstics meteorològics de més de 4000 aeroports (METAR i TAF).

Les estacions disponibles són els punts grocs i vermells al mapa.

Posi el ratolí al punt desitjat per veure el nom de l'estació.

Feu clic per veure les observacions i els pronòstics meteorològics.

Per canviar el mapa: feu clic els botons verds amb una creu de color negre per apropar; al botó verd amb un guió per allunyar la imatge; o en les fletxes verdes per a mapes adjacents.


METAR-TAF: